CheckWX is a tool to help pilots better visualize weather data.  It is not intended as a substitute for an official pre-flight weather briefing.

21:00:55 UTC

M21 METAR
Muhlenberg County Airport
Greenville, Kentucky, USA
Current

26 mins ago

KM21 172035Z AUTO 35004KT 10SM SCT065 32/17 A3000 RMK AO2 T03230165
Observed
Sep-17 @ 20:35 UTC
Wind
  • 350° at 4 KTS
Visibility
10 SM
Flight Rules
VFR
Cloud Levels
  • Scattered at 6,500' AGL
Temperature
32°C / 90°F
Dewpoint
17°C / 63°F
Heat Index
33°C / 91°F
Humidity
41%
Altimeter
30" Hg
Pressure
1015.92 hPa
Previous

46 mins ago

KM21 172015Z AUTO 03005KT 10SM BKN065 33/17 A3000 RMK AO2 T03310170
Observed
Sep-17 @ 20:15 UTC
Wind
  • 030° at 5 KTS
Visibility
10 SM
Flight Rules
VFR
Cloud Levels
  • Broken at 6,500' AGL
Temperature
33°C / 91°F
Dewpoint
17°C / 63°F
Humidity
38%
Altimeter
30" Hg
Pressure
1015.92 hPa
Previous

1 hour ago

KM21 171955Z AUTO 05006KT 10SM CLR 33/16 A3001 RMK AO2 T03320163
Observed
Sep-17 @ 19:55 UTC
Wind
  • 050° at 6 KTS
Visibility
10 SM
Flight Rules
VFR
Cloud Levels
  • Clear skies
Temperature
33°C / 91°F
Dewpoint
16°C / 61°F
Humidity
36%
Altimeter
30.01" Hg
Pressure
1016.22 hPa